MQT2AD EDDM-LSZH
Flight info
| Callsign | MQT2AD |
|---|---|
| Flight time | 0h 36m |
| Altitude | 24000 |
| Route | MERSI4E/08R MERSI Y100 MOMUK Y112 RAVED L856 NEGRA |
| Aircraft | A320/M-SDE3FGHIRWY/LB1 |
Departure
| Time | 2026-05-01 13:20 |
|---|---|
| Airport | Munich Airport (EDDM) |
Arrival
| Time | 2026-05-01 13:56 |
|---|---|
| Airport | Zürich Airport (LSZH) |
| Time | Latitude | Longitude | Altitude | Speed | Heading |
|---|---|---|---|---|---|
| 2026-05-01 12:53 | 48.35272 | 11.77693 | 1487 ft | 0 kts | 265° |
| 2026-05-01 13:07 | 48.35274 | 11.77722 | 1487 ft | 4 kts | 265° |
| 2026-05-01 13:07 | 48.35276 | 11.77762 | 1484 ft | 4 kts | 263° |
| 2026-05-01 13:08 | 48.35278 | 11.77795 | 1487 ft | 4 kts | 281° |
| 2026-05-01 13:08 | 48.35267 | 11.77826 | 1484 ft | 4 kts | 331° |
| 2026-05-01 13:08 | 48.35243 | 11.77837 | 1487 ft | 3 kts | 353° |
| 2026-05-01 13:08 | 48.35227 | 11.77840 | 1477 ft | 0 kts | 353° |
| 2026-05-01 13:11 | 48.35235 | 11.77842 | 1487 ft | 1 kts | 4° |
| 2026-05-01 13:11 | 48.35251 | 11.77819 | 1479 ft | 5 kts | 293° |
| 2026-05-01 13:11 | 48.35227 | 11.77781 | 1476 ft | 7 kts | 193° |
| 2026-05-01 13:11 | 48.35171 | 11.77788 | 1473 ft | 10 kts | 173° |
| 2026-05-01 13:12 | 48.35094 | 11.77801 | 1475 ft | 12 kts | 174° |
| 2026-05-01 13:12 | 48.35008 | 11.77816 | 1481 ft | 13 kts | 173° |
| 2026-05-01 13:12 | 48.34917 | 11.77832 | 1480 ft | 12 kts | 173° |
| 2026-05-01 13:12 | 48.34852 | 11.77864 | 1473 ft | 10 kts | 158° |
| 2026-05-01 13:13 | 48.34780 | 11.77883 | 1483 ft | 11 kts | 174° |
| 2026-05-01 13:13 | 48.34713 | 11.77893 | 1482 ft | 10 kts | 174° |
| 2026-05-01 13:13 | 48.34660 | 11.77857 | 1478 ft | 9 kts | 258° |
| 2026-05-01 13:13 | 48.34650 | 11.77746 | 1478 ft | 13 kts | 263° |
| 2026-05-01 13:14 | 48.34639 | 11.77592 | 1487 ft | 17 kts | 263° |
| 2026-05-01 13:14 | 48.34624 | 11.77400 | 1476 ft | 20 kts | 264° |
| 2026-05-01 13:14 | 48.34607 | 11.77181 | 1487 ft | 21 kts | 263° |
| 2026-05-01 13:14 | 48.34590 | 11.76958 | 1487 ft | 22 kts | 263° |
| 2026-05-01 13:15 | 48.34575 | 11.76781 | 1477 ft | 11 kts | 263° |
| 2026-05-01 13:15 | 48.34532 | 11.76695 | 1478 ft | 12 kts | 191° |
| 2026-05-01 13:15 | 48.34450 | 11.76707 | 1474 ft | 12 kts | 164° |
| 2026-05-01 13:15 | 48.34392 | 11.76800 | 1487 ft | 13 kts | 117° |
| 2026-05-01 13:16 | 48.34355 | 11.76927 | 1487 ft | 14 kts | 113° |
| 2026-05-01 13:16 | 48.34327 | 11.77023 | 1487 ft | 0 kts | 112° |
| 2026-05-01 13:18 | 48.34299 | 11.77122 | 1487 ft | 9 kts | 113° |
| 2026-05-01 13:18 | 48.34276 | 11.77210 | 1480 ft | 10 kts | 110° |
| 2026-05-01 13:18 | 48.34257 | 11.77313 | 1482 ft | 11 kts | 101° |
| 2026-05-01 13:18 | 48.34249 | 11.77413 | 1487 ft | 6 kts | 88° |
| 2026-05-01 13:19 | 48.34249 | 11.77430 | 1480 ft | 8 kts | 88° |
| 2026-05-01 13:19 | 48.34277 | 11.77808 | 1482 ft | 67 kts | 83° |
| 2026-05-01 13:19 | 48.34472 | 11.80253 | 1786 ft | 146 kts | 83° |
| 2026-05-01 13:20 | 48.34588 | 11.81760 | 2589 ft | 145 kts | 83° |
| 2026-05-01 13:20 | 48.34703 | 11.83264 | 3359 ft | 152 kts | 83° |
| 2026-05-01 13:20 | 48.34831 | 11.84931 | 3932 ft | 169 kts | 83° |
| 2026-05-01 13:21 | 48.35132 | 11.88763 | 5221 ft | 197 kts | 83° |
| 2026-05-01 13:21 | 48.35294 | 11.90870 | 5867 ft | 210 kts | 83° |
| 2026-05-01 13:21 | 48.35443 | 11.93165 | 6453 ft | 232 kts | 90° |
| 2026-05-01 13:21 | 48.35066 | 11.95570 | 7402 ft | 244 kts | 117° |
| 2026-05-01 13:22 | 48.33946 | 11.97480 | 8557 ft | 248 kts | 142° |
| 2026-05-01 13:22 | 48.32531 | 11.99057 | 9613 ft | 257 kts | 141° |
| 2026-05-01 13:22 | 48.31101 | 12.00725 | 10683 ft | 263 kts | 141° |
| 2026-05-01 13:22 | 48.29513 | 12.02128 | 11710 ft | 270 kts | 158° |
| 2026-05-01 13:23 | 48.27646 | 12.02744 | 12539 ft | 285 kts | 175° |
| 2026-05-01 13:23 | 48.25600 | 12.02623 | 13187 ft | 302 kts | 182° |
| 2026-05-01 13:23 | 48.23470 | 12.02447 | 14016 ft | 310 kts | 181° |
| 2026-05-01 13:23 | 48.21295 | 12.02301 | 14918 ft | 315 kts | 181° |
| 2026-05-01 13:24 | 48.19086 | 12.02168 | 15798 ft | 320 kts | 180° |
| 2026-05-01 13:24 | 48.16847 | 12.02037 | 16652 ft | 324 kts | 180° |
| 2026-05-01 13:24 | 48.14576 | 12.01905 | 17463 ft | 331 kts | 180° |
| 2026-05-01 13:25 | 48.09813 | 12.00843 | 18375 ft | 367 kts | 203° |
| 2026-05-01 13:25 | 48.07660 | 11.98644 | 18781 ft | 385 kts | 225° |
| 2026-05-01 13:25 | 48.06149 | 11.95286 | 19142 ft | 399 kts | 248° |
| 2026-05-01 13:25 | 48.05364 | 11.91298 | 19568 ft | 410 kts | 257° |
| 2026-05-01 13:26 | 48.04663 | 11.87128 | 20098 ft | 417 kts | 257° |
| 2026-05-01 13:26 | 48.03970 | 11.82923 | 20509 ft | 414 kts | 257° |
| 2026-05-01 13:26 | 48.03279 | 11.78713 | 21037 ft | 421 kts | 257° |
| 2026-05-01 13:26 | 48.02570 | 11.74446 | 21676 ft | 425 kts | 257° |
| 2026-05-01 13:27 | 48.01843 | 11.70144 | 22325 ft | 430 kts | 257° |
| 2026-05-01 13:27 | 48.01235 | 11.65766 | 22942 ft | 432 kts | 264° |
| 2026-05-01 13:27 | 48.00761 | 11.56741 | 24081 ft | 440 kts | 267° |
| 2026-05-01 13:28 | 48.00338 | 11.47612 | 24351 ft | 440 kts | 267° |
| 2026-05-01 13:28 | 48.00127 | 11.43062 | 24357 ft | 440 kts | 267° |
| 2026-05-01 13:29 | 47.99771 | 11.35482 | 24359 ft | 440 kts | 267° |
| 2026-05-01 13:29 | 47.99329 | 11.26376 | 24358 ft | 440 kts | 267° |
| 2026-05-01 13:30 | 47.98422 | 11.08168 | 24349 ft | 440 kts | 267° |
| 2026-05-01 13:31 | 47.97323 | 10.99199 | 24347 ft | 441 kts | 256° |
| 2026-05-01 13:31 | 47.94943 | 10.85945 | 24349 ft | 441 kts | 256° |
| 2026-05-01 13:32 | 47.93346 | 10.77128 | 24348 ft | 440 kts | 256° |
| 2026-05-01 13:33 | 47.90952 | 10.63927 | 24330 ft | 440 kts | 255° |
| 2026-05-01 13:33 | 47.89337 | 10.55143 | 24331 ft | 439 kts | 255° |
| 2026-05-01 13:34 | 47.87720 | 10.46362 | 24332 ft | 439 kts | 255° |
| 2026-05-01 13:34 | 47.86096 | 10.37594 | 24331 ft | 439 kts | 255° |
| 2026-05-01 13:35 | 47.85067 | 10.28687 | 24311 ft | 436 kts | 267° |
| 2026-05-01 13:35 | 47.84887 | 10.24180 | 24331 ft | 436 kts | 267° |
| 2026-05-01 13:35 | 47.84524 | 10.15174 | 24332 ft | 436 kts | 267° |
| 2026-05-01 13:36 | 47.84336 | 10.10665 | 24319 ft | 436 kts | 267° |
| 2026-05-01 13:36 | 47.84144 | 10.06163 | 24332 ft | 436 kts | 267° |
| 2026-05-01 13:36 | 47.82979 | 9.97397 | 24316 ft | 437 kts | 250° |
| 2026-05-01 13:37 | 47.81734 | 9.93271 | 24322 ft | 437 kts | 244° |
| 2026-05-01 13:37 | 47.80387 | 9.89215 | 24313 ft | 437 kts | 244° |
| 2026-05-01 13:37 | 47.79034 | 9.85165 | 24307 ft | 437 kts | 244° |
| 2026-05-01 13:37 | 47.77680 | 9.81117 | 24311 ft | 437 kts | 244° |
| 2026-05-01 13:38 | 47.74960 | 9.73028 | 24304 ft | 437 kts | 244° |
| 2026-05-01 13:38 | 47.73755 | 9.68883 | 24306 ft | 437 kts | 252° |
| 2026-05-01 13:38 | 47.73005 | 9.64524 | 24299 ft | 436 kts | 261° |
| 2026-05-01 13:39 | 47.72718 | 9.60046 | 24164 ft | 436 kts | 268° |
| 2026-05-01 13:39 | 47.72583 | 9.55579 | 23782 ft | 431 kts | 268° |
| 2026-05-01 13:39 | 47.72457 | 9.51142 | 23411 ft | 429 kts | 268° |
| 2026-05-01 13:39 | 47.72081 | 9.46763 | 23049 ft | 428 kts | 258° |
| 2026-05-01 13:40 | 47.71207 | 9.42556 | 22670 ft | 426 kts | 248° |
| 2026-05-01 13:40 | 47.69856 | 9.38659 | 22291 ft | 424 kts | 237° |
| 2026-05-01 13:40 | 47.68094 | 9.35163 | 21912 ft | 422 kts | 231° |
| 2026-05-01 13:40 | 47.66239 | 9.31798 | 21535 ft | 420 kts | 231° |
| 2026-05-01 13:41 | 47.64394 | 9.28452 | 21146 ft | 415 kts | 231° |
| 2026-05-01 13:41 | 47.62597 | 9.25197 | 20777 ft | 401 kts | 231° |
| 2026-05-01 13:41 | 47.60913 | 9.21989 | 20409 ft | 389 kts | 236° |
| 2026-05-01 13:41 | 47.59621 | 9.18523 | 20039 ft | 379 kts | 247° |
| 2026-05-01 13:42 | 47.58787 | 9.14867 | 19660 ft | 373 kts | 257° |
| 2026-05-01 13:42 | 47.58296 | 9.11119 | 19282 ft | 371 kts | 260° |
| 2026-05-01 13:42 | 47.57913 | 9.07354 | 18909 ft | 368 kts | 266° |
| 2026-05-01 13:42 | 47.57967 | 9.03584 | 18535 ft | 365 kts | 278° |
| 2026-05-01 13:43 | 47.58492 | 8.99926 | 18172 ft | 362 kts | 288° |
| 2026-05-01 13:43 | 47.59387 | 8.96446 | 17800 ft | 359 kts | 293° |
| 2026-05-01 13:43 | 47.60315 | 8.93025 | 17360 ft | 358 kts | 293° |
| 2026-05-01 13:43 | 47.61231 | 8.89655 | 16746 ft | 358 kts | 293° |
| 2026-05-01 13:44 | 47.62141 | 8.86234 | 16126 ft | 356 kts | 289° |
| 2026-05-01 13:44 | 47.62674 | 8.82644 | 15453 ft | 357 kts | 276° |
| 2026-05-01 13:44 | 47.62639 | 8.78971 | 14813 ft | 357 kts | 262° |
| 2026-05-01 13:44 | 47.62051 | 8.75408 | 14184 ft | 356 kts | 249° |
| 2026-05-01 13:45 | 47.61113 | 8.72016 | 13552 ft | 355 kts | 247° |
| 2026-05-01 13:45 | 47.60164 | 8.68656 | 12926 ft | 353 kts | 247° |
| 2026-05-01 13:45 | 47.59473 | 8.65231 | 12302 ft | 343 kts | 262° |
| 2026-05-01 13:45 | 47.59473 | 8.61751 | 11677 ft | 335 kts | 279° |
| 2026-05-01 13:46 | 47.60154 | 8.58508 | 11072 ft | 328 kts | 296° |
| 2026-05-01 13:46 | 47.61413 | 8.55737 | 10445 ft | 322 kts | 313° |
| 2026-05-01 13:46 | 47.63019 | 8.53463 | 9816 ft | 317 kts | 317° |
| 2026-05-01 13:46 | 47.64630 | 8.51262 | 9182 ft | 314 kts | 317° |
| 2026-05-01 13:47 | 47.66212 | 8.49100 | 8793 ft | 303 kts | 317° |
| 2026-05-01 13:47 | 47.67742 | 8.47006 | 8423 ft | 295 kts | 317° |
| 2026-05-01 13:47 | 47.69228 | 8.44967 | 8101 ft | 286 kts | 317° |
| 2026-05-01 13:47 | 47.70661 | 8.43000 | 7852 ft | 276 kts | 317° |
| 2026-05-01 13:48 | 47.72045 | 8.41095 | 7615 ft | 267 kts | 317° |
| 2026-05-01 13:48 | 47.73242 | 8.39038 | 7375 ft | 261 kts | 300° |
| 2026-05-01 13:48 | 47.73794 | 8.36531 | 7127 ft | 254 kts | 275° |
| 2026-05-01 13:48 | 47.73623 | 8.33995 | 7017 ft | 241 kts | 250° |
| 2026-05-01 13:49 | 47.72850 | 8.31890 | 7022 ft | 227 kts | 228° |
| 2026-05-01 13:49 | 47.71792 | 8.30168 | 7017 ft | 226 kts | 226° |
| 2026-05-01 13:49 | 47.70716 | 8.28534 | 7017 ft | 220 kts | 217° |
| 2026-05-01 13:49 | 47.69390 | 8.27525 | 6979 ft | 212 kts | 192° |
| 2026-05-01 13:50 | 47.67921 | 8.27468 | 6719 ft | 213 kts | 166° |
| 2026-05-01 13:50 | 47.66585 | 8.28380 | 6447 ft | 213 kts | 140° |
| 2026-05-01 13:50 | 47.65490 | 8.29855 | 6175 ft | 213 kts | 136° |
| 2026-05-01 13:50 | 47.64403 | 8.31366 | 5899 ft | 215 kts | 136° |
| 2026-05-01 13:51 | 47.63317 | 8.32876 | 5627 ft | 211 kts | 136° |
| 2026-05-01 13:51 | 47.62269 | 8.34327 | 5357 ft | 201 kts | 136° |
| 2026-05-01 13:51 | 47.61255 | 8.35720 | 5089 ft | 197 kts | 136° |
| 2026-05-01 13:51 | 47.60280 | 8.37056 | 4800 ft | 186 kts | 136° |
| 2026-05-01 13:52 | 47.59324 | 8.38335 | 4402 ft | 183 kts | 136° |
| 2026-05-01 13:52 | 47.58397 | 8.39591 | 4112 ft | 179 kts | 136° |
| 2026-05-01 13:52 | 47.57489 | 8.40837 | 3861 ft | 176 kts | 136° |
| 2026-05-01 13:52 | 47.56612 | 8.42045 | 3631 ft | 166 kts | 136° |
| 2026-05-01 13:53 | 47.55790 | 8.43178 | 3419 ft | 158 kts | 136° |
| 2026-05-01 13:53 | 47.54244 | 8.45330 | 2989 ft | 151 kts | 135° |
| 2026-05-01 13:53 | 47.53463 | 8.46374 | 2790 ft | 150 kts | 137° |
| 2026-05-01 13:54 | 47.52706 | 8.47413 | 2648 ft | 146 kts | 133° |
| 2026-05-01 13:54 | 47.51972 | 8.48457 | 2453 ft | 146 kts | 135° |
| 2026-05-01 13:54 | 47.51224 | 8.49469 | 2219 ft | 145 kts | 135° |
| 2026-05-01 13:54 | 47.50490 | 8.50504 | 2011 ft | 146 kts | 135° |
| 2026-05-01 13:55 | 47.49743 | 8.51509 | 1815 ft | 145 kts | 137° |
| 2026-05-01 13:55 | 47.49005 | 8.52522 | 1641 ft | 144 kts | 136° |
| 2026-05-01 13:55 | 47.48271 | 8.53523 | 1450 ft | 144 kts | 136° |
| 2026-05-01 13:55 | 47.47575 | 8.54476 | 1407 ft | 130 kts | 137° |
| 2026-05-01 13:56 | 47.47010 | 8.55250 | 1398 ft | 85 kts | 136° |
| 2026-05-01 13:56 | 47.46625 | 8.55775 | 1399 ft | 50 kts | 137° |
| 2026-05-01 13:56 | 47.46414 | 8.55945 | 1401 ft | 24 kts | 166° |
| 2026-05-01 13:56 | 47.46332 | 8.55973 | 1404 ft | 6 kts | 167° |
| 2026-05-01 13:57 | 47.46304 | 8.55982 | 1402 ft | 0 kts | 166° |
| 2026-05-01 13:57 | 47.46295 | 8.55985 | 1402 ft | 4 kts | 167° |
| 2026-05-01 13:57 | 47.46237 | 8.55961 | 1409 ft | 9 kts | 226° |
| 2026-05-01 13:57 | 47.46228 | 8.55865 | 1404 ft | 10 kts | 275° |
| 2026-05-01 13:58 | 47.46235 | 8.55757 | 1400 ft | 11 kts | 276° |
| 2026-05-01 13:58 | 47.46243 | 8.55646 | 1403 ft | 7 kts | 276° |
| 2026-05-01 13:58 | 47.46228 | 8.55599 | 1406 ft | 5 kts | 198° |
| 2026-05-01 13:58 | 47.46192 | 8.55593 | 1405 ft | 4 kts | 189° |
| 2026-05-01 13:59 | 47.46168 | 8.55588 | 1399 ft | 2 kts | 186° |
| 2026-05-01 13:59 | 47.46163 | 8.55587 | 1401 ft | 0 kts | 186° |